createdAt,value
2022-12-09T00:01:23.180Z,16.85
2022-12-09T00:03:52.040Z,16.27
2022-12-09T00:06:20.779Z,16.15
2022-12-09T00:08:54.194Z,16.58
2022-12-09T00:13:50.121Z,14.27
2022-12-09T00:16:18.233Z,17.52
2022-12-09T00:18:46.355Z,17.25
2022-12-09T00:21:20.098Z,16.92
2022-12-09T00:23:47.834Z,17.35
2022-12-09T00:26:15.912Z,16.77
2022-12-09T00:28:44.997Z,16.67
2022-12-09T00:31:16.834Z,17.33
2022-12-09T00:33:45.378Z,17.77
2022-12-09T00:36:15.083Z,16.98
2022-12-09T00:38:43.086Z,16.38
2022-12-09T00:41:10.922Z,16.60
2022-12-09T00:43:38.171Z,17.48
2022-12-09T00:46:06.370Z,19.13
2022-12-09T00:48:34.619Z,16.60
2022-12-09T00:51:02.805Z,17.23
2022-12-09T00:53:30.076Z,18.13
2022-12-09T00:55:57.757Z,19.08
2022-12-09T00:58:24.980Z,17.38
2022-12-09T01:00:53.892Z,17.17
2022-12-09T01:03:24.131Z,17.48
2022-12-09T01:05:54.589Z,17.55
2022-12-09T01:08:22.188Z,17.13
2022-12-09T01:10:50.133Z,16.92
2022-12-09T01:13:17.512Z,18.38
2022-12-09T01:15:45.384Z,16.95
2022-12-09T01:18:13.561Z,15.80
2022-12-09T01:20:41.071Z,16.98
2022-12-09T01:23:09.209Z,17.20
2022-12-09T01:25:38.792Z,16.15
2022-12-09T01:28:06.312Z,16.10
2022-12-09T01:30:33.865Z,15.77
2022-12-09T01:33:01.442Z,17.17
2022-12-09T01:35:29.346Z,16.60
2022-12-09T01:37:56.802Z,16.83
2022-12-09T01:40:24.277Z,15.40
2022-12-09T01:42:52.311Z,15.82
2022-12-09T01:45:23.584Z,14.02
2022-12-09T01:48:06.163Z,14.57
2022-12-09T01:50:35.084Z,13.90
2022-12-09T01:53:03.753Z,14.60
2022-12-09T01:55:31.264Z,13.88
2022-12-09T01:57:58.768Z,13.38
2022-12-09T02:00:26.366Z,13.35
2022-12-09T02:02:58.082Z,14.00
2022-12-09T02:05:26.019Z,14.13
2022-12-09T02:07:56.475Z,13.85
2022-12-09T02:10:23.914Z,13.25
2022-12-09T02:12:57.513Z,13.73
2022-12-09T02:17:58.689Z,12.98
2022-12-09T02:20:55.599Z,13.65
2022-12-09T02:23:29.782Z,14.40
2022-12-09T02:25:58.621Z,13.65
2022-12-09T02:28:44.551Z,12.93
2022-12-09T02:31:28.159Z,11.45
2022-12-09T02:34:12.350Z,12.70
2022-12-09T02:36:57.320Z,12.57
2022-12-09T02:39:36.624Z,12.50
2022-12-09T02:42:09.968Z,11.90
2022-12-09T02:44:38.903Z,12.30
2022-12-09T02:47:07.986Z,12.93
2022-12-09T02:49:37.350Z,12.40
2022-12-09T02:52:05.748Z,11.98
2022-12-09T02:54:34.418Z,12.88
2022-12-09T02:57:03.882Z,14.23
2022-12-09T02:59:32.162Z,13.90
2022-12-09T03:02:09.059Z,14.88
2022-12-09T03:04:38.620Z,12.77
2022-12-09T03:07:12.435Z,12.10
2022-12-09T03:09:44.088Z,11.40
2022-12-09T03:12:11.843Z,12.80
2022-12-09T03:14:41.358Z,13.43
2022-12-09T03:17:19.774Z,12.02
2022-12-09T03:20:02.832Z,10.88
2022-12-09T03:22:31.435Z,10.70
2022-12-09T03:25:15.277Z,14.43
2022-12-09T03:27:45.069Z,9.88
2022-12-09T03:30:13.558Z,9.35
2022-12-09T03:32:42.858Z,10.02
2022-12-09T03:35:15.639Z,10.25
2022-12-09T03:37:44.878Z,10.93
2022-12-09T03:40:15.541Z,12.00
2022-12-09T03:42:57.141Z,10.32
2022-12-09T03:45:25.480Z,10.88
2022-12-09T03:47:56.386Z,11.77
2022-12-09T03:50:24.538Z,11.02
2022-12-09T03:52:59.361Z,11.35
2022-12-09T03:55:33.232Z,10.50
2022-12-09T03:58:03.688Z,11.00
2022-12-09T04:00:31.644Z,8.77
2022-12-09T04:02:59.774Z,11.48
2022-12-09T04:05:27.817Z,9.98
2022-12-09T04:07:55.002Z,11.68
2022-12-09T04:10:25.040Z,10.00
2022-12-09T04:12:55.045Z,8.70
2022-12-09T04:15:25.216Z,9.05
2022-12-09T04:17:55.668Z,10.15
2022-12-09T04:20:23.166Z,10.05
2022-12-09T04:22:50.361Z,10.40
2022-12-09T04:25:17.680Z,10.00
2022-12-09T04:27:44.952Z,9.30
2022-12-09T04:30:13.414Z,10.02
2022-12-09T04:32:41.228Z,10.68
2022-12-09T04:35:08.880Z,10.10
2022-12-09T04:37:37.958Z,10.68
2022-12-09T04:40:06.891Z,10.00
2022-12-09T04:42:34.830Z,10.82
2022-12-09T04:45:03.040Z,11.18
2022-12-09T04:47:31.166Z,11.38
2022-12-09T04:49:58.441Z,11.82
2022-12-09T04:52:25.650Z,11.00
2022-12-09T04:54:55.934Z,12.65
2022-12-09T04:57:26.590Z,13.20
2022-12-09T04:59:56.879Z,11.43
2022-12-09T05:02:24.646Z,12.75
2022-12-09T05:04:54.166Z,12.15
2022-12-09T05:07:23.417Z,13.90
2022-12-09T05:09:52.460Z,14.35
2022-12-09T05:12:20.474Z,13.52
2022-12-09T05:14:48.500Z,17.00
2022-12-09T05:17:16.503Z,14.88
2022-12-09T05:19:46.379Z,14.82
2022-12-09T05:22:17.130Z,14.05
2022-12-09T05:24:47.689Z,17.58
2022-12-09T05:27:19.030Z,16.65
2022-12-09T05:29:46.993Z,16.75
2022-12-09T05:32:14.802Z,20.90
2022-12-09T05:34:45.372Z,15.50
2022-12-09T05:37:16.623Z,16.70
2022-12-09T05:39:48.167Z,15.55
2022-12-09T05:42:16.202Z,17.23
2022-12-09T05:44:44.483Z,16.25
2022-12-09T05:47:12.884Z,22.52
2022-12-09T05:49:40.184Z,14.65
2022-12-09T05:52:08.357Z,23.27
2022-12-09T05:54:36.234Z,14.32
2022-12-09T05:57:06.763Z,18.73
2022-12-09T05:59:34.928Z,16.70
2022-12-09T06:02:06.899Z,17.05
2022-12-09T06:04:37.519Z,15.50
2022-12-09T06:07:05.336Z,18.45
2022-12-09T06:09:33.689Z,17.77
2022-12-09T06:12:01.365Z,18.55
2022-12-09T06:14:29.189Z,15.38
2022-12-09T06:16:56.560Z,15.95
2022-12-09T06:19:23.971Z,15.77
2022-12-09T06:21:53.921Z,14.95
2022-12-09T06:24:21.801Z,19.67
2022-12-09T06:26:49.404Z,17.85
2022-12-09T06:29:16.989Z,17.13
2022-12-09T06:31:44.285Z,17.73
2022-12-09T06:34:12.496Z,17.48
2022-12-09T06:36:40.486Z,15.27
2022-12-09T06:39:10.529Z,14.10
2022-12-09T06:41:39.321Z,15.23
2022-12-09T06:44:07.435Z,15.40
2022-12-09T06:46:35.239Z,18.20
2022-12-09T06:49:02.687Z,18.90
2022-12-09T06:51:30.198Z,16.33
2022-12-09T06:53:58.086Z,16.50
2022-12-09T06:56:25.532Z,18.92
2022-12-09T06:58:56.246Z,18.73
2022-12-09T07:01:24.760Z,18.80
2022-12-09T07:03:56.883Z,18.75
2022-12-09T07:06:27.809Z,16.33
2022-12-09T07:08:56.452Z,17.52
2022-12-09T07:11:24.719Z,15.93
2022-12-09T07:13:55.545Z,16.40
2022-12-09T07:16:26.072Z,14.45
2022-12-09T07:18:57.359Z,15.80
2022-12-09T07:21:25.615Z,15.45
2022-12-09T07:23:54.804Z,16.90
2022-12-09T07:26:25.149Z,16.95
2022-12-09T07:28:53.817Z,17.80
2022-12-09T07:31:23.656Z,18.38
2022-12-09T07:33:55.455Z,18.33
2022-12-09T07:36:26.457Z,16.40
2022-12-09T07:39:08.283Z,21.52
2022-12-09T07:41:36.054Z,17.23
2022-12-09T07:44:03.638Z,20.75
2022-12-09T07:46:32.192Z,22.50
2022-12-09T07:49:00.368Z,18.17
2022-12-09T07:51:29.572Z,21.30
2022-12-09T07:54:00.429Z,17.08
2022-12-09T07:56:29.430Z,18.35
2022-12-09T07:58:58.298Z,15.43
2022-12-09T08:01:28.519Z,16.85
2022-12-09T08:03:56.654Z,18.40
2022-12-09T08:06:26.226Z,19.23
2022-12-09T08:08:54.311Z,20.73
2022-12-09T08:11:25.379Z,19.67
2022-12-09T08:13:54.076Z,19.13
2022-12-09T08:16:23.133Z,21.40
2022-12-09T08:18:53.967Z,16.77
2022-12-09T08:21:30.580Z,17.40
2022-12-09T08:23:59.162Z,19.65
2022-12-09T08:26:28.691Z,18.55
2022-12-09T08:28:56.652Z,19.95
2022-12-09T08:31:25.004Z,21.17
2022-12-09T08:33:53.998Z,26.33
2022-12-09T08:36:24.263Z,17.77
2022-12-09T08:38:54.529Z,20.27
2022-12-09T08:41:35.805Z,17.45
2022-12-09T08:44:07.372Z,16.08
2022-12-09T08:46:35.631Z,21.38
2022-12-09T08:49:04.396Z,18.10
2022-12-09T08:51:32.565Z,16.10
2022-12-09T08:54:01.396Z,15.73
2022-12-09T08:56:29.217Z,19.90
2022-12-09T08:58:56.457Z,18.80
2022-12-09T09:01:26.854Z,20.48
2022-12-09T09:03:54.730Z,20.52
2022-12-09T09:06:26.925Z,19.92
2022-12-09T09:09:04.076Z,20.15
2022-12-09T09:11:32.495Z,18.35
2022-12-09T09:14:00.284Z,13.57
2022-12-09T09:16:29.799Z,13.75
2022-12-09T09:19:02.821Z,13.73
2022-12-09T09:21:34.636Z,12.82
2022-12-09T09:24:02.550Z,12.10
2022-12-09T09:26:31.069Z,12.70
2022-12-09T09:29:00.977Z,13.27
2022-12-09T09:31:30.449Z,13.20
2022-12-09T09:33:58.757Z,11.93
2022-12-09T09:36:26.529Z,12.70
2022-12-09T09:38:57.615Z,14.60
2022-12-09T09:44:31.146Z,14.57
2022-12-09T09:46:59.348Z,15.68
2022-12-09T09:49:30.000Z,16.00
2022-12-09T09:51:57.879Z,17.75
2022-12-09T09:54:26.210Z,17.23
2022-12-09T09:57:01.578Z,16.88
2022-12-09T09:59:38.319Z,16.15
2022-12-09T10:02:14.276Z,17.35
2022-12-09T10:04:54.636Z,17.38
2022-12-09T10:07:40.707Z,18.23
2022-12-09T10:10:17.940Z,17.33
2022-12-09T10:12:54.530Z,16.83
2022-12-09T10:15:30.322Z,19.63
2022-12-09T10:18:19.176Z,17.87
2022-12-09T10:20:48.047Z,18.10
2022-12-09T10:23:17.562Z,18.25
2022-12-09T10:25:49.936Z,17.40
2022-12-09T10:28:30.570Z,16.85
2022-12-09T10:30:58.310Z,18.80
2022-12-09T10:33:28.472Z,19.05
2022-12-09T10:35:56.355Z,18.35
2022-12-09T10:38:30.294Z,18.13
2022-12-09T10:41:02.087Z,17.10
2022-12-09T10:43:45.280Z,18.38
2022-12-09T10:46:21.210Z,16.65
2022-12-09T10:48:49.706Z,16.77
2022-12-09T10:51:19.964Z,17.95
2022-12-09T10:54:01.778Z,17.05
2022-12-09T10:56:32.684Z,18.08
2022-12-09T10:59:12.802Z,17.52
2022-12-09T11:01:55.735Z,16.42
2022-12-09T11:04:29.564Z,16.30
2022-12-09T11:07:00.821Z,17.25
2022-12-09T11:09:34.418Z,17.70
2022-12-09T11:12:03.076Z,16.58
2022-12-09T11:14:33.463Z,18.13
2022-12-09T11:17:12.944Z,16.63
2022-12-09T11:19:45.284Z,16.35
2022-12-09T11:22:23.103Z,17.67
2022-12-09T11:24:53.786Z,17.27
2022-12-09T11:27:30.288Z,16.05
2022-12-09T11:30:12.699Z,17.38
2022-12-09T11:33:01.124Z,16.30
2022-12-09T11:35:40.276Z,16.85
2022-12-09T11:38:27.250Z,16.30
2022-12-09T11:41:37.119Z,17.45
2022-12-09T11:44:15.033Z,16.55
2022-12-09T11:46:42.983Z,16.30
2022-12-09T11:49:18.975Z,16.67
2022-12-09T11:52:06.606Z,15.88
2022-12-09T11:54:41.829Z,15.85
2022-12-09T11:57:16.106Z,17.42
2022-12-09T11:59:49.687Z,17.77
2022-12-09T12:02:29.989Z,15.45
2022-12-09T12:05:21.915Z,16.95
2022-12-09T12:08:00.664Z,15.20
2022-12-09T12:10:32.981Z,16.58
2022-12-09T12:13:07.438Z,15.60
2022-12-09T12:15:40.976Z,15.05
2022-12-09T12:20:48.474Z,15.63
2022-12-09T12:23:35.890Z,15.40
2022-12-09T12:26:07.501Z,15.07
2022-12-09T12:28:45.970Z,14.60
2022-12-09T12:31:16.703Z,14.73
2022-12-09T12:36:50.189Z,15.07
2022-12-09T12:39:40.408Z,15.20
2022-12-09T12:42:32.408Z,14.13
2022-12-09T12:45:33.440Z,15.20
2022-12-09T12:48:04.939Z,15.65
2022-12-09T12:50:39.171Z,15.43
2022-12-09T12:53:23.957Z,15.40
2022-12-09T12:56:06.154Z,14.43
2022-12-09T12:58:43.612Z,15.73
2022-12-09T13:01:19.355Z,15.18
2022-12-09T13:04:10.570Z,15.88
2022-12-09T13:06:42.727Z,15.80
2022-12-09T13:09:33.762Z,14.77
2022-12-09T13:12:04.316Z,15.00
2022-12-09T13:14:36.784Z,14.68
2022-12-09T13:17:08.268Z,13.25
2022-12-09T13:19:39.507Z,13.38
2022-12-09T13:22:17.650Z,13.35
2022-12-09T13:24:50.543Z,13.65
2022-12-09T13:27:20.080Z,13.43
2022-12-09T13:30:10.126Z,13.23
2022-12-09T13:33:16.352Z,12.88
2022-12-09T13:35:55.994Z,13.18
2022-12-09T13:38:36.868Z,13.52
2022-12-09T13:41:25.691Z,13.52
2022-12-09T13:43:53.864Z,13.48
2022-12-09T13:46:33.206Z,14.30
2022-12-09T13:49:11.323Z,12.93
2022-12-09T13:51:54.979Z,14.15
2022-12-09T13:54:26.644Z,14.32
2022-12-09T13:57:15.080Z,12.95
2022-12-09T13:59:48.790Z,14.32
2022-12-09T14:04:59.746Z,11.98
2022-12-09T14:07:47.078Z,12.90
2022-12-09T14:10:33.125Z,12.68
2022-12-09T14:13:03.361Z,12.50
2022-12-09T14:15:34.034Z,13.07
2022-12-09T14:18:05.597Z,12.90
2022-12-09T14:20:35.827Z,12.20
2022-12-09T14:23:05.383Z,13.40
2022-12-09T14:25:36.101Z,12.65
2022-12-09T14:28:12.759Z,12.48
2022-12-09T14:31:06.510Z,11.95
2022-12-09T14:33:54.677Z,12.98
2022-12-09T14:36:28.118Z,13.75
2022-12-09T14:39:23.625Z,14.82
2022-12-09T14:42:06.775Z,15.40
2022-12-09T14:44:48.955Z,14.55
2022-12-09T14:47:17.931Z,15.48
2022-12-09T14:49:49.302Z,16.25
2022-12-09T14:52:37.764Z,15.82
2022-12-09T14:55:12.291Z,16.00
2022-12-09T14:57:43.092Z,14.98
2022-12-09T15:00:28.793Z,16.13
2022-12-09T15:03:30.981Z,15.75
2022-12-09T15:06:00.925Z,17.00
2022-12-09T15:08:33.804Z,16.65
2022-12-09T15:11:13.260Z,16.17
2022-12-09T15:13:42.439Z,16.52
2022-12-09T15:16:10.981Z,16.95
2022-12-09T15:18:39.389Z,18.05
2022-12-09T15:21:07.375Z,18.48
2022-12-09T15:23:42.083Z,18.00
2022-12-09T15:26:18.443Z,17.15
2022-12-09T15:28:48.298Z,16.60
2022-12-09T15:31:18.798Z,15.10
2022-12-09T15:33:47.579Z,16.27
2022-12-09T15:36:17.926Z,16.80
2022-12-09T15:38:46.899Z,17.15
2022-12-09T15:41:34.070Z,16.17
2022-12-09T15:44:04.067Z,16.48
2022-12-09T15:46:36.370Z,16.38
2022-12-09T15:49:07.152Z,17.23
2022-12-09T15:51:36.777Z,16.27
2022-12-09T15:54:07.793Z,17.38
2022-12-09T15:56:36.797Z,16.77
2022-12-09T15:59:07.938Z,17.90
2022-12-09T16:01:35.828Z,15.52
2022-12-09T16:04:04.277Z,17.25
2022-12-09T16:06:33.147Z,16.80
2022-12-09T16:09:00.694Z,17.63
2022-12-09T16:11:41.905Z,14.55
2022-12-09T16:14:09.979Z,15.93
2022-12-09T16:16:45.374Z,16.63
2022-12-09T16:19:26.202Z,15.65
2022-12-09T16:21:58.825Z,15.48
2022-12-09T16:24:44.160Z,15.63
2022-12-09T16:27:17.622Z,14.75
2022-12-09T16:29:49.149Z,16.25
2022-12-09T16:32:19.299Z,16.92
2022-12-09T16:34:47.984Z,16.75
2022-12-09T16:37:28.051Z,16.92
2022-12-09T16:39:55.397Z,15.98
2022-12-09T16:42:31.324Z,16.73
2022-12-09T16:45:18.210Z,16.23
2022-12-09T16:47:45.774Z,15.70
2022-12-09T16:50:13.019Z,16.92
2022-12-09T16:52:40.824Z,16.75
2022-12-09T16:55:26.910Z,16.73
2022-12-09T16:57:55.007Z,16.10
2022-12-09T17:00:28.009Z,17.70
2022-12-09T17:06:07.818Z,17.42
2022-12-09T17:08:35.845Z,17.70
2022-12-09T17:11:03.022Z,16.60
2022-12-09T17:13:30.202Z,16.17
2022-12-09T17:16:01.748Z,17.48
2022-12-09T17:18:30.265Z,16.00
2022-12-09T17:21:01.944Z,17.13
2022-12-09T17:23:37.701Z,16.33
2022-12-09T17:26:07.608Z,17.15
2022-12-09T17:28:35.795Z,16.17
2022-12-09T17:31:02.963Z,16.70
2022-12-09T17:33:30.307Z,17.17
2022-12-09T17:35:57.872Z,16.25
2022-12-09T17:38:25.350Z,17.42
2022-12-09T17:40:56.150Z,17.17
2022-12-09T17:43:23.694Z,17.83
2022-12-09T17:45:52.349Z,17.55
2022-12-09T17:48:19.985Z,18.85
2022-12-09T17:50:47.839Z,17.75
2022-12-09T17:53:15.473Z,17.25
2022-12-09T17:55:42.908Z,17.40
2022-12-09T17:58:10.841Z,16.42
2022-12-09T18:00:42.000Z,16.95
2022-12-09T18:03:17.654Z,18.88
2022-12-09T18:05:49.835Z,18.17
2022-12-09T18:08:17.300Z,18.13
2022-12-09T18:10:44.917Z,17.45
2022-12-09T18:13:12.467Z,18.13
2022-12-09T18:15:39.949Z,17.92
2022-12-09T18:18:07.382Z,18.35
2022-12-09T18:20:35.025Z,17.23
2022-12-09T18:23:02.191Z,18.75
2022-12-09T18:25:29.624Z,16.95
2022-12-09T18:27:57.087Z,17.75
2022-12-09T18:30:24.838Z,17.15
2022-12-09T18:32:55.688Z,18.48
2022-12-09T18:35:25.299Z,18.05
2022-12-09T18:37:53.397Z,17.70
2022-12-09T18:40:21.246Z,19.48
2022-12-09T18:42:49.970Z,19.02
2022-12-09T18:45:17.733Z,18.25
2022-12-09T18:47:45.147Z,18.92
2022-12-09T18:50:12.595Z,18.20
2022-12-09T18:52:41.114Z,19.27
2022-12-09T18:55:08.946Z,20.52
2022-12-09T18:57:36.079Z,19.83
2022-12-09T19:00:03.872Z,19.63
2022-12-09T19:02:31.290Z,18.95
2022-12-09T19:04:59.487Z,18.85
2022-12-09T19:07:32.063Z,18.05
2022-12-09T19:09:59.625Z,17.00
2022-12-09T19:15:14.270Z,16.15
2022-12-09T19:17:42.695Z,17.95
2022-12-09T19:20:10.535Z,17.50
2022-12-09T19:22:37.733Z,17.85
2022-12-09T19:25:06.790Z,17.25
2022-12-09T19:27:34.058Z,17.30
2022-12-09T19:30:01.787Z,17.77
2022-12-09T19:35:30.792Z,17.40
2022-12-09T19:38:04.352Z,17.23
2022-12-09T19:40:39.416Z,17.52
2022-12-09T19:43:07.436Z,17.67
2022-12-09T19:45:41.932Z,21.67
2022-12-09T19:48:09.054Z,24.02
2022-12-09T19:50:39.104Z,27.30
2022-12-09T19:53:06.888Z,28.27
2022-12-09T19:55:35.925Z,25.10
2022-12-09T19:58:08.168Z,23.13
2022-12-09T20:00:41.103Z,21.15
2022-12-09T20:03:08.757Z,20.20
2022-12-09T20:05:36.288Z,20.30
2022-12-09T20:08:03.683Z,20.23
2022-12-09T20:10:31.216Z,21.48
2022-12-09T20:12:58.545Z,21.90
2022-12-09T20:15:33.273Z,20.63
2022-12-09T20:18:00.832Z,19.15
2022-12-09T20:20:28.899Z,21.45
2022-12-09T20:22:56.082Z,19.70
2022-12-09T20:25:23.778Z,20.48
2022-12-09T20:27:50.917Z,18.17
2022-12-09T20:30:18.179Z,18.77
2022-12-09T20:32:45.970Z,19.45
2022-12-09T20:35:13.601Z,20.25
2022-12-09T20:37:41.306Z,19.92
2022-12-09T20:40:08.921Z,19.83
2022-12-09T20:42:36.985Z,19.35
2022-12-09T20:45:05.521Z,18.95
2022-12-09T20:47:33.045Z,18.45
2022-12-09T20:50:00.734Z,19.23
2022-12-09T20:52:28.189Z,17.45
2022-12-09T20:54:56.124Z,19.23
2022-12-09T20:57:26.589Z,18.45
2022-12-09T20:59:53.857Z,17.75
2022-12-09T21:02:21.013Z,17.17
2022-12-09T21:04:48.245Z,17.38
2022-12-09T21:07:16.471Z,17.52
2022-12-09T21:09:44.824Z,17.92
2022-12-09T21:12:12.769Z,18.52
2022-12-09T21:14:40.098Z,18.65
2022-12-09T21:17:07.643Z,17.60
2022-12-09T21:19:34.971Z,17.50
2022-12-09T21:22:03.026Z,17.33
2022-12-09T21:24:30.383Z,17.30
2022-12-09T21:26:57.946Z,17.48
2022-12-09T21:29:31.343Z,17.25
2022-12-09T21:31:59.789Z,17.02
2022-12-09T21:34:27.577Z,18.30
2022-12-09T21:36:54.862Z,19.13
2022-12-09T21:39:22.030Z,17.65
2022-12-09T21:41:49.164Z,18.42
2022-12-09T21:44:18.481Z,18.00
2022-12-09T21:46:46.268Z,18.80
2022-12-09T21:49:13.656Z,18.25
2022-12-09T21:51:40.830Z,17.05
2022-12-09T21:54:07.945Z,17.77
2022-12-09T21:56:36.687Z,17.25
2022-12-09T21:59:05.080Z,17.52
2022-12-09T22:01:34.118Z,18.25
2022-12-09T22:04:02.964Z,16.48
2022-12-09T22:06:30.963Z,17.77
2022-12-09T22:09:00.038Z,18.85
2022-12-09T22:11:29.066Z,17.38
2022-12-09T22:13:58.025Z,16.70
2022-12-09T22:16:26.750Z,16.05
2022-12-09T22:18:57.873Z,18.23
2022-12-09T22:21:27.417Z,17.58
2022-12-09T22:25:05.981Z,17.95
2022-12-09T22:26:53.955Z,18.17
2022-12-09T22:29:21.035Z,18.70
2022-12-09T22:31:48.651Z,19.08
2022-12-09T22:34:18.073Z,18.23
2022-12-09T22:36:46.022Z,19.30
2022-12-09T22:39:15.329Z,18.70
2022-12-09T22:41:43.676Z,19.50
2022-12-09T22:44:15.665Z,17.55
2022-12-09T22:46:43.203Z,19.25
2022-12-09T22:49:11.283Z,17.52
2022-12-09T22:51:38.563Z,16.95
2022-12-09T22:54:08.213Z,18.48
2022-12-09T22:56:39.549Z,17.13
2022-12-09T22:59:07.287Z,19.58
2022-12-09T23:01:37.672Z,17.42
2022-12-09T23:04:06.737Z,20.88
2022-12-09T23:06:35.506Z,19.92
2022-12-09T23:09:02.964Z,20.83
2022-12-09T23:11:30.098Z,20.30
2022-12-09T23:13:59.106Z,20.73
2022-12-09T23:16:27.109Z,21.23
2022-12-09T23:18:56.597Z,19.95
2022-12-09T23:21:31.284Z,20.92
2022-12-09T23:24:00.714Z,21.67
2022-12-09T23:26:28.672Z,21.20
2022-12-09T23:28:56.901Z,21.85
2022-12-09T23:31:28.260Z,20.73
2022-12-09T23:33:55.966Z,21.05
2022-12-09T23:36:24.908Z,21.23
2022-12-09T23:38:56.409Z,21.05
2022-12-09T23:41:24.766Z,20.98
2022-12-09T23:43:55.194Z,21.08
2022-12-09T23:46:27.120Z,20.77
2022-12-09T23:48:54.694Z,20.35
2022-12-09T23:51:24.420Z,20.02
2022-12-09T23:53:54.722Z,19.80
2022-12-09T23:56:23.636Z,21.23
2022-12-09T23:58:57.707Z,21.90
